Main page
METAR-TAF:

METAR-TAF

Airports :

Begumpet Airport

Hyderabad, India

latitude: 17-27N, longitude: 078-28E, elevation: 530 m

Current weather observation

The report was made 20 minutes ago, at 13:30 UTC
Wind 6 kt from the East/Northeast
Temperature 37°C
Humidity 33%
Pressure 1010 hPa
Visibility: 6000 m
Scattered clouds at a height of 2000 ft
Scattered clouds at a height of 2500 ft
Few clouds at a height of 3000 ft, Cumulonimbus.

METAR: VOHY 201330Z 07006KT 6000 SCT020 SCT025 FEW030CB 37/18 Q1010 NOSIG

Time: 19:20 (13:50 UTC)

Forecast

The report was made 2 hours and 50 minutes ago, at 11:00 UTC
Forecast valid from 20 at 12 UTC to 20 at 21 UTC
Wind 7 kt from the South/Southeast
Visibility: 6000 m
Few clouds at a height of 1500 ft
Scattered clouds at a height of 2500 ft
Temporary
from 20 at 12 UTC to 20 at 18 UTC
Few clouds at a height of 3000 ft, Cumulonimbus.

TAF: VOHY 201100Z 2012/2021 16007KT 6000 FEW015 SCT025 TEMPO 2012/2018 FEW030CB

Weather observations and forecasts of more than 4000 airports (METAR and TAF reports).

The available stations are represented by yellow and red dots on the map.

Hover mouse over dot to see the name of the station.

Then click to see weather observations and forecasts.

To change the map : click on the green buttons with a black cross to zoom in, on the green button with a dash to zoom out, or on the green arrows for adjacent maps.


METAR-TAF: